Observations for Trim Market St
| Time | AQI | Temp °C | Hum % | Pres Pa | CO μg/m³ | H₂S μg/m³ | NO μg/m³ | NO₂ μg/m³ | O₃ μg/m³ | SO₂ μg/m³ | PM1 μg/m³ | PM2.5 μg/m³ | PM10 μg/m³ |
|---|---|---|---|---|---|---|---|---|---|---|---|---|---|
| Friday 10 July 2026 | |||||||||||||
| 09:56 | 1 | 34.9 | 36 | 66,276 | 0 | 0 | 0 | 0 | 13.14 | 0 | 2.85 | 5.18 | 5.7 |
| 09:55 | 1 | 34.9 | 36 | 66,254 | 0 | 0 | 0 | 0 | 15.16 | 0 | 2.14 | 5.18 | 5.7 |
| 09:54 | 1 | 34.8 | 36 | 66,233 | 0.07 | 0 | 0 | 0 | 7.04 | 0 | 1.43 | 4.11 | 4.52 |
| 09:52 | 1 | 34.6 | 36 | 66,214 | 0 | 0 | 0 | 0 | 19.22 | 0 | 1.43 | 4.1 | 4.51 |
| 09:51 | 1 | 34.5 | 36 | 66,208 | 0 | 0 | 0 | 0 | 15.32 | 0 | 1.43 | 5.7 | 5.87 |
| 09:45 | 1 | 33.7 | 38 | 66,094 | 0 | 0 | 0 | 0 | 19.77 | 0 | 0.71 | 4.05 | 4.46 |
| 09:44 | 1 | 33.6 | 38 | 66,096 | 0 | 0 | 0 | 0 | 10.21 | 0 | 1.43 | 4.58 | 5.07 |
| 09:42 | 1 | 33.3 | 38 | 66,027 | 0 | 0 | 0 | 0 | 19.89 | 0 | 2.14 | 5.63 | 5.89 |
| 09:37 | 1 | 32.9 | 39 | 65,853 | 0 | 0 | 0 | 0 | 12.18 | 0 | 0.71 | 4 | 4.4 |
| 09:33 | 1 | 32.6 | 39 | 65,811 | 0 | 0 | 0 | 0 | 9.4 | 0 | 0.71 | 3.46 | 3.81 |
| 09:32 | 1 | 32.6 | 39 | 65,858 | 0 | 0 | 0 | 0 | 9.45 | 0 | 1.43 | 3.99 | 4.28 |
| 09:31 | 1 | 32.5 | 39 | 65,823 | 0 | 0 | 0 | 0 | 9.95 | 0 | 2.14 | 5.58 | 5.9 |
| 09:30 | 1 | 32.5 | 39 | 65,815 | 0 | 0 | 0 | 0 | 5.89 | 0 | 1.43 | 4.51 | 4.96 |
| 09:29 | 1 | 32.5 | 39 | 65,799 | 0 | 0 | 0 | 0 | 7.36 | 0 | 1.43 | 3.98 | 4.38 |
| 09:28 | 1 | 32.4 | 39 | 65,782 | 0.28 | 0 | 0 | 0 | 0 | 0 | 0.71 | 3.45 | 3.79 |
| 09:27 | 1 | 32.4 | 39 | 65,756 | 2.3 | 0 | 0 | 0 | 5.32 | 0 | 0.71 | 3.98 | 4.37 |
| 09:26 | 1 | 32.4 | 39 | 65,786 | 0.5 | 0 | 0 | 0 | 4.36 | 0 | 1.43 | 4.5 | 4.95 |
| 09:25 | 1 | 32.3 | 39 | 65,768 | 0 | 0 | 0 | 0 | 3.67 | 0 | 1.43 | 3.97 | 4.36 |
| 09:24 | 1 | 32.4 | 40 | 65,736 | 0 | 0 | 0 | 0 | 0 | 0 | 0 | 2.89 | 3.18 |
| 09:23 | 1 | 32.3 | 40 | 65,692 | 0 | 0 | 0 | 0 | 0 | 0 | 1.43 | 3.95 | 4.34 |